Terminal Aerodrome Forecast
Issued by NWS

Home | Current Version | Previous Version | Text Only | Print | Product List | Glossary On
Versions: 1 2 3 4 5 6 7 8 9 10 11 12 13
000
FTUS46 KSEW 262300
TAFOLM
TAF
KOLM 262320Z 2700/2724 33007KT P6SM BKN050
     FM270400 VRB04KT P6SM SCT040
     FM271000 00000KT P6SM BKN015
     FM271700 32006KT P6SM SCT040=

USA.gov is the U.S. government's official web portal to all federal, state and local government web resources and services.